createdAt,value
2022-08-16T00:02:33.325Z,97737.25
2022-08-16T00:05:00.942Z,97734.28
2022-08-16T00:07:29.642Z,97736.03
2022-08-16T00:10:00.607Z,97734.94
2022-08-16T00:12:30.129Z,97728.72
2022-08-16T00:15:00.086Z,97742.41
2022-08-16T00:17:28.167Z,97746.56
2022-08-16T00:19:55.722Z,97737.28
2022-08-16T00:22:24.629Z,97747.56
2022-08-16T00:24:55.897Z,97750.31
2022-08-16T00:27:23.166Z,97749.47
2022-08-16T00:30:08.937Z,97749.09
2022-08-16T00:32:41.811Z,97752.44
2022-08-16T00:35:15.444Z,97754.19
2022-08-16T00:37:58.553Z,97755.25
2022-08-16T00:40:36.803Z,97760.91
2022-08-16T00:43:23.794Z,97765.50
2022-08-16T00:46:22.286Z,97771.13
2022-08-16T00:48:55.172Z,97765.66
2022-08-16T00:51:25.544Z,97771.25
2022-08-16T00:53:56.409Z,97765.91
2022-08-16T00:56:58.208Z,97768.41
2022-08-16T00:59:16.414Z,97768.13
2022-08-16T01:01:44.594Z,97774.59
2022-08-16T01:04:30.192Z,97772.53
2022-08-16T01:07:03.802Z,97773.63
2022-08-16T01:09:38.668Z,97775.91
2022-08-16T01:12:11.224Z,97770.84
2022-08-16T01:14:58.153Z,97774.25
2022-08-16T01:17:28.043Z,97778.94
2022-08-16T01:20:23.684Z,97785.94
2022-08-16T01:22:59.749Z,97785.78
2022-08-16T01:25:34.430Z,97793.44
2022-08-16T01:28:07.869Z,97781.59
2022-08-16T01:30:40.030Z,97790.53
2022-08-16T01:33:17.809Z,97785.31
2022-08-16T01:36:01.062Z,97797.13
2022-08-16T01:38:30.727Z,97793.84
2022-08-16T01:41:02.551Z,97792.53
2022-08-16T01:43:33.796Z,97793.66
2022-08-16T01:46:37.581Z,97785.50
2022-08-16T01:49:03.862Z,97796.75
2022-08-16T01:51:31.648Z,97801.31
2022-08-16T01:53:59.841Z,97798.72
2022-08-16T01:56:31.353Z,97778.53
2022-08-16T01:59:01.218Z,97800.69
2022-08-16T02:01:29.145Z,97800.00
2022-08-16T02:03:58.723Z,97800.56
2022-08-16T02:06:45.914Z,97807.94
2022-08-16T02:09:17.751Z,97802.06
2022-08-16T02:11:55.426Z,97811.16
2022-08-16T02:14:26.476Z,97807.22
2022-08-16T02:16:57.935Z,97800.72
2022-08-16T02:19:59.381Z,97785.59
2022-08-16T02:22:34.735Z,97791.13
2022-08-16T02:25:08.216Z,97795.72
2022-08-16T02:27:36.670Z,97788.72
2022-08-16T02:30:08.028Z,97805.38
2022-08-16T02:32:50.260Z,97799.00
2022-08-16T02:35:23.097Z,97802.63
2022-08-16T02:37:52.521Z,97801.28
2022-08-16T02:40:22.585Z,97802.75
2022-08-16T02:42:51.131Z,97803.88
2022-08-16T02:45:20.550Z,97811.25
2022-08-16T02:48:00.145Z,97810.22
2022-08-16T02:50:53.872Z,97813.19
2022-08-16T02:53:26.456Z,97811.88
2022-08-16T02:55:53.653Z,97819.06
2022-08-16T02:58:25.042Z,97827.69
2022-08-16T03:00:55.733Z,97813.69
2022-08-16T03:03:26.260Z,97814.66
2022-08-16T03:05:54.293Z,97818.41
2022-08-16T03:08:50.830Z,97825.41
2022-08-16T03:11:16.721Z,97817.09
2022-08-16T03:13:48.064Z,97803.41
2022-08-16T03:16:33.056Z,97811.09
2022-08-16T03:19:08.321Z,97812.69
2022-08-16T03:21:38.054Z,97798.19
2022-08-16T03:24:27.591Z,97798.19
2022-08-16T03:26:59.357Z,97799.31
2022-08-16T03:29:30.049Z,97804.56
2022-08-16T03:31:59.408Z,97790.56
2022-08-16T03:34:28.327Z,97791.03
2022-08-16T03:36:55.136Z,97797.22
2022-08-16T03:39:22.408Z,97779.78
2022-08-16T03:41:59.302Z,97806.50
2022-08-16T03:44:44.681Z,97814.97
2022-08-16T03:47:19.001Z,97813.50
2022-08-16T03:49:51.857Z,97802.56
2022-08-16T03:52:23.265Z,97807.63
2022-08-16T03:54:58.182Z,97815.13
2022-08-16T03:57:32.120Z,97816.25
2022-08-16T04:00:20.776Z,97815.94
2022-08-16T04:03:08.800Z,97806.19
2022-08-16T04:05:46.703Z,97811.06
2022-08-16T04:08:22.738Z,97792.81
2022-08-16T04:10:58.464Z,97819.06
2022-08-16T04:13:58.884Z,97810.25
2022-08-16T04:16:26.794Z,97814.81
2022-08-16T04:19:02.411Z,97815.47
2022-08-16T04:21:34.594Z,97825.91
2022-08-16T04:24:04.046Z,97827.19
2022-08-16T04:26:35.826Z,97825.09
2022-08-16T04:29:17.200Z,97829.16
2022-08-16T04:31:56.185Z,97840.09
2022-08-16T04:34:30.581Z,97842.19
2022-08-16T04:37:01.909Z,97844.44
2022-08-16T04:39:37.127Z,97847.72
2022-08-16T04:42:17.455Z,97839.34
2022-08-16T04:44:57.508Z,97859.25
2022-08-16T04:47:35.454Z,97867.25
2022-08-16T04:50:15.372Z,97865.63
2022-08-16T04:52:59.276Z,97880.63
2022-08-16T04:55:37.580Z,97867.28
2022-08-16T04:58:44.032Z,97871.50
2022-08-16T05:00:53.758Z,97878.03
2022-08-16T05:03:23.689Z,97882.75
2022-08-16T05:05:59.229Z,97883.41
2022-08-16T05:08:32.892Z,97897.44
2022-08-16T05:11:11.452Z,97881.97
2022-08-16T05:13:43.194Z,97895.50
2022-08-16T05:16:23.068Z,97888.81
2022-08-16T05:19:04.972Z,97887.19
2022-08-16T05:21:42.765Z,97888.81
2022-08-16T05:24:11.242Z,97886.84
2022-08-16T05:26:40.845Z,97894.03
2022-08-16T05:29:10.815Z,97887.06
2022-08-16T05:31:48.413Z,97897.34
2022-08-16T05:34:22.276Z,97893.41
2022-08-16T05:36:52.995Z,97897.50
2022-08-16T05:39:22.488Z,97897.63
2022-08-16T05:41:51.732Z,97891.13
2022-08-16T05:44:23.485Z,97887.88
2022-08-16T05:46:55.049Z,97900.25
2022-08-16T05:49:26.160Z,97905.28
2022-08-16T05:52:13.820Z,97900.88
2022-08-16T05:55:00.970Z,97893.38
2022-08-16T05:57:34.429Z,97895.50
2022-08-16T06:00:05.680Z,97896.78
2022-08-16T06:02:39.212Z,97898.91
2022-08-16T06:05:15.838Z,97899.56
2022-08-16T06:07:43.602Z,97892.72
2022-08-16T06:10:32.987Z,97908.53
2022-08-16T06:13:03.216Z,97907.56
2022-08-16T06:15:30.548Z,97918.47
2022-08-16T06:17:59.304Z,97912.59
2022-08-16T06:20:35.196Z,97905.72
2022-08-16T06:23:17.268Z,97906.69
2022-08-16T06:26:07.501Z,97901.63
2022-08-16T06:28:37.909Z,97911.56
2022-08-16T06:31:12.805Z,97907.97
2022-08-16T06:33:44.554Z,97913.38
2022-08-16T06:36:14.844Z,97909.63
2022-08-16T06:38:55.893Z,97911.22
2022-08-16T06:41:59.106Z,97914.34
2022-08-16T06:44:51.552Z,97915.66
2022-08-16T06:47:53.450Z,97903.06
2022-08-16T06:50:28.621Z,97913.84
2022-08-16T06:53:00.697Z,97914.00
2022-08-16T06:55:34.348Z,97911.53
2022-08-16T06:58:08.536Z,97914.44
2022-08-16T07:00:51.405Z,97917.00
2022-08-16T07:03:27.838Z,97908.53
2022-08-16T07:05:56.979Z,97903.59
2022-08-16T07:08:32.660Z,97914.53
2022-08-16T07:11:00.055Z,97910.25
2022-08-16T07:13:58.591Z,97920.84
2022-08-16T07:16:20.585Z,97916.56
2022-08-16T07:18:58.165Z,97915.56
2022-08-16T07:21:28.288Z,97926.19
2022-08-16T07:24:29.844Z,97928.97
2022-08-16T07:27:08.345Z,97924.69
2022-08-16T07:29:37.815Z,97924.03
2022-08-16T07:32:09.188Z,97921.34
2022-08-16T07:34:37.692Z,97920.47
2022-08-16T07:37:15.538Z,97923.25
2022-08-16T07:40:07.523Z,97919.94
2022-08-16T07:42:40.886Z,97915.28
2022-08-16T07:45:10.289Z,97920.44
2022-08-16T07:47:41.959Z,97923.19
2022-08-16T07:50:56.187Z,97926.44
2022-08-16T07:52:57.507Z,97923.94
2022-08-16T07:55:26.981Z,97928.13
2022-08-16T07:58:00.605Z,97930.00
2022-08-16T08:00:29.070Z,97924.78
2022-08-16T08:03:00.325Z,97931.84
2022-08-16T08:05:35.968Z,97925.41
2022-08-16T08:08:11.552Z,97919.66
2022-08-16T08:10:39.093Z,97927.94
2022-08-16T08:13:05.700Z,97917.47
2022-08-16T08:15:37.031Z,97915.31
2022-08-16T08:18:29.910Z,97920.38
2022-08-16T08:20:59.005Z,97914.44
2022-08-16T08:23:27.645Z,97914.44
2022-08-16T08:25:55.801Z,97910.84
2022-08-16T08:28:27.504Z,97921.06
2022-08-16T08:31:06.563Z,97916.44
2022-08-16T08:33:38.377Z,97909.75
2022-08-16T08:36:11.307Z,97907.06
2022-08-16T08:38:51.169Z,97904.19
2022-08-16T08:41:20.918Z,97910.03
2022-08-16T08:43:56.055Z,97903.44
2022-08-16T08:46:25.293Z,97901.44
2022-08-16T08:48:59.667Z,97892.31
2022-08-16T08:51:35.714Z,97905.25
2022-08-16T08:54:09.080Z,97906.84
2022-08-16T08:56:45.519Z,97906.50
2022-08-16T08:59:26.338Z,97903.53
2022-08-16T09:01:56.543Z,97895.19
2022-08-16T09:04:28.560Z,97897.84
2022-08-16T09:06:58.549Z,97907.28
2022-08-16T09:09:33.457Z,97902.66
2022-08-16T09:12:06.089Z,97900.28
2022-08-16T09:14:49.384Z,97894.56
2022-08-16T09:17:45.295Z,97896.09
2022-08-16T09:20:08.035Z,97901.81
2022-08-16T09:22:35.189Z,97891.44
2022-08-16T09:25:09.928Z,97889.88
2022-08-16T09:27:57.084Z,97898.00
2022-08-16T09:30:33.374Z,97894.44
2022-08-16T09:33:02.598Z,97895.56
2022-08-16T09:35:30.780Z,97892.16
2022-08-16T09:38:00.445Z,97891.09
2022-08-16T09:40:32.369Z,97885.09
2022-08-16T09:43:37.803Z,97898.53
2022-08-16T09:46:00.039Z,97898.16
2022-08-16T09:48:36.756Z,97890.25
2022-08-16T09:51:12.393Z,97894.28
2022-08-16T09:53:39.701Z,97897.38
2022-08-16T09:56:20.116Z,97889.97
2022-08-16T09:59:05.544Z,97892.66
2022-08-16T10:01:36.346Z,97893.25
2022-08-16T10:04:13.009Z,97891.25
2022-08-16T10:06:56.629Z,97902.47
2022-08-16T10:09:25.492Z,97891.91
2022-08-16T10:12:31.080Z,97893.47
2022-08-16T10:14:57.721Z,97891.75
2022-08-16T10:17:25.102Z,97881.03
2022-08-16T10:19:53.027Z,97882.22
2022-08-16T10:22:23.039Z,97882.63
2022-08-16T10:24:56.019Z,97879.41
2022-08-16T10:27:29.987Z,97877.38
2022-08-16T10:30:25.287Z,97868.50
2022-08-16T10:32:55.238Z,97877.84
2022-08-16T10:35:21.981Z,97869.94
2022-08-16T10:37:52.448Z,97877.06
2022-08-16T10:40:29.058Z,97866.94
2022-08-16T10:43:01.844Z,97860.88
2022-08-16T10:45:36.939Z,97868.56
2022-08-16T10:48:27.099Z,97862.88
2022-08-16T10:50:53.548Z,97859.84
2022-08-16T10:53:20.077Z,97863.31
2022-08-16T10:55:48.357Z,97860.69
2022-08-16T10:58:34.368Z,97856.81
2022-08-16T11:03:54.123Z,97827.88
2022-08-16T11:06:27.818Z,97848.91
2022-08-16T11:14:29.230Z,97855.59
2022-08-16T11:17:10.986Z,97862.22
2022-08-16T11:22:42.046Z,97863.66
2022-08-16T11:28:06.856Z,97860.75
2022-08-16T11:30:38.598Z,97860.09
2022-08-16T11:33:07.349Z,97863.88
2022-08-16T11:38:46.759Z,97863.38
2022-08-16T11:41:09.795Z,97873.75
2022-08-16T11:43:39.147Z,97870.31
2022-08-16T11:46:44.917Z,97877.34
2022-08-16T11:48:58.215Z,97875.34
2022-08-16T11:51:24.764Z,97876.56
2022-08-16T11:53:51.787Z,97873.72
2022-08-16T11:56:39.487Z,97882.22
2022-08-16T11:59:08.810Z,97870.81
2022-08-16T12:01:55.111Z,97878.53
2022-08-16T12:04:23.405Z,97874.38
2022-08-16T12:06:53.786Z,97865.94
2022-08-16T12:09:21.835Z,97867.81
2022-08-16T12:11:52.551Z,97870.06
2022-08-16T12:14:22.896Z,97874.78
2022-08-16T12:16:55.713Z,97879.88
2022-08-16T12:19:35.596Z,97869.13
2022-08-16T12:22:05.565Z,97875.16
2022-08-16T12:24:45.320Z,97872.84
2022-08-16T12:27:14.564Z,97880.00
2022-08-16T12:29:42.399Z,97876.75
2022-08-16T12:32:26.715Z,97861.16
2022-08-16T12:34:55.732Z,97867.44
2022-08-16T12:37:24.644Z,97862.88
2022-08-16T12:39:55.915Z,97855.28
2022-08-16T12:42:34.485Z,97854.22
2022-08-16T12:45:04.939Z,97859.19
2022-08-16T12:47:49.889Z,97847.38
2022-08-16T12:50:18.526Z,97847.66
2022-08-16T12:52:53.147Z,97842.38
2022-08-16T12:55:20.842Z,97837.78
2022-08-16T12:57:58.124Z,97838.75
2022-08-16T13:00:32.935Z,97835.75
2022-08-16T13:03:01.250Z,97831.94
2022-08-16T13:05:28.610Z,97827.00
2022-08-16T13:07:58.319Z,97825.66
2022-08-16T13:10:38.076Z,97831.50
2022-08-16T13:13:09.095Z,97838.13
2022-08-16T13:15:50.069Z,97835.53
2022-08-16T13:18:27.201Z,97824.16
2022-08-16T13:21:00.479Z,97821.44
2022-08-16T13:23:27.037Z,97824.44
2022-08-16T13:25:55.209Z,97812.63
2022-08-16T13:28:22.159Z,97815.50
2022-08-16T13:30:54.394Z,97816.78
2022-08-16T13:33:30.562Z,97821.66
2022-08-16T13:35:59.232Z,97812.03
2022-08-16T13:38:35.187Z,97821.44
2022-08-16T13:41:09.108Z,97807.44
2022-08-16T13:43:37.956Z,97813.13
2022-08-16T13:46:05.481Z,97822.03
2022-08-16T13:48:43.250Z,97811.56
2022-08-16T13:51:16.733Z,97809.38
2022-08-16T13:53:49.648Z,97799.97
2022-08-16T13:56:25.857Z,97808.09
2022-08-16T13:59:02.971Z,97814.06
2022-08-16T14:01:29.648Z,97807.75
2022-08-16T14:03:57.176Z,97810.97
2022-08-16T14:06:25.360Z,97807.09
2022-08-16T14:08:59.253Z,97806.47
2022-08-16T14:11:34.468Z,97821.81
2022-08-16T14:14:01.851Z,97806.59
2022-08-16T14:16:33.924Z,97812.50
2022-08-16T14:19:06.832Z,97808.38
2022-08-16T14:21:35.288Z,97798.22
2022-08-16T14:24:03.213Z,97817.47
2022-08-16T14:26:41.069Z,97807.44
2022-08-16T14:29:11.295Z,97808.09
2022-08-16T14:31:39.735Z,97813.88
2022-08-16T14:34:07.726Z,97813.09
2022-08-16T14:36:38.164Z,97803.34
2022-08-16T14:39:09.188Z,97799.50
2022-08-16T14:41:36.620Z,97808.66
2022-08-16T14:44:06.777Z,97802.34
2022-08-16T14:46:33.425Z,97809.91
2022-08-16T14:49:01.644Z,97809.69
2022-08-16T14:51:28.915Z,97811.31
2022-08-16T14:53:56.845Z,97810.56
2022-08-16T14:56:38.751Z,97814.03
2022-08-16T14:59:10.874Z,97804.88
2022-08-16T15:01:58.921Z,97807.72
2022-08-16T15:04:32.324Z,97806.97
2022-08-16T15:07:06.806Z,97819.56
2022-08-16T15:09:44.354Z,97808.84
2022-08-16T15:12:30.864Z,97810.88
2022-08-16T15:14:58.324Z,97804.47
2022-08-16T15:17:27.509Z,97810.34
2022-08-16T15:20:01.673Z,97809.97
2022-08-16T15:22:31.357Z,97781.31
2022-08-16T15:25:01.954Z,97788.03
2022-08-16T15:27:33.625Z,97789.97
2022-08-16T15:30:58.410Z,97784.88
2022-08-16T15:33:00.199Z,97779.38
2022-08-16T15:35:27.163Z,97792.25
2022-08-16T15:37:56.630Z,97788.34
2022-08-16T15:40:32.119Z,97800.06
2022-08-16T15:43:03.882Z,97793.19
2022-08-16T15:45:55.608Z,97793.00
2022-08-16T15:48:28.582Z,97793.22
2022-08-16T15:50:59.113Z,97791.34
2022-08-16T15:53:30.701Z,97790.22
2022-08-16T15:55:59.214Z,97775.50
2022-08-16T15:58:35.250Z,97779.50
2022-08-16T16:01:05.768Z,97781.44
2022-08-16T16:03:34.622Z,97784.81
2022-08-16T16:06:03.932Z,97783.63
2022-08-16T16:08:32.156Z,97788.25
2022-08-16T16:11:03.329Z,97789.44
2022-08-16T16:13:31.402Z,97775.09
2022-08-16T16:16:02.815Z,97785.44
2022-08-16T16:18:31.601Z,97784.09
2022-08-16T16:21:08.382Z,97790.53
2022-08-16T16:23:54.877Z,97788.53
2022-08-16T16:26:26.722Z,97780.50
2022-08-16T16:29:08.532Z,97788.28
2022-08-16T16:31:41.754Z,97790.91
2022-08-16T16:34:10.923Z,97791.84
2022-08-16T16:36:39.777Z,97794.41
2022-08-16T16:39:10.908Z,97786.72
2022-08-16T16:41:39.550Z,97790.16
2022-08-16T16:44:09.106Z,97792.34
2022-08-16T16:46:43.019Z,97790.38
2022-08-16T16:49:14.179Z,97790.41
2022-08-16T16:51:47.031Z,97779.28
2022-08-16T16:54:27.530Z,97789.03
2022-08-16T16:56:56.557Z,97783.91
2022-08-16T16:59:25.550Z,97782.66
2022-08-16T17:01:59.737Z,97781.88
2022-08-16T17:04:42.226Z,97786.84
2022-08-16T17:07:10.552Z,97786.06
2022-08-16T17:09:40.326Z,97783.16
2022-08-16T17:12:09.654Z,97787.28
2022-08-16T17:14:38.518Z,97790.97
2022-08-16T17:17:11.655Z,97791.00
2022-08-16T17:19:40.814Z,97784.53
2022-08-16T17:22:19.900Z,97785.38
2022-08-16T17:24:52.810Z,97786.63
2022-08-16T17:27:33.214Z,97787.31
2022-08-16T17:30:14.879Z,97799.97
2022-08-16T17:32:48.722Z,97790.16
2022-08-16T17:35:21.637Z,97805.00
2022-08-16T17:37:52.138Z,97800.97
2022-08-16T17:40:47.536Z,97808.09
2022-08-16T17:43:18.571Z,97807.09
2022-08-16T17:45:46.370Z,97799.63
2022-08-16T17:48:13.133Z,97802.88
2022-08-16T17:50:40.941Z,97805.72
2022-08-16T17:53:08.396Z,97813.44
2022-08-16T17:55:38.618Z,97823.41
2022-08-16T17:58:20.961Z,97814.69
2022-08-16T18:00:52.423Z,97823.41
2022-08-16T18:04:07.803Z,97824.44
2022-08-16T18:06:13.159Z,97825.03
2022-08-16T18:08:40.286Z,97827.66
2022-08-16T18:11:10.179Z,97826.84
2022-08-16T18:13:42.905Z,97833.53
2022-08-16T18:16:10.360Z,97818.34
2022-08-16T18:18:37.341Z,97834.13
2022-08-16T18:21:22.890Z,97833.31
2022-08-16T18:23:49.482Z,97834.94
2022-08-16T18:26:16.081Z,97829.06
2022-08-16T18:28:42.852Z,97832.88
2022-08-16T18:31:09.453Z,97845.41
2022-08-16T18:33:43.542Z,97852.16
2022-08-16T18:36:20.838Z,97858.41
2022-08-16T18:38:49.390Z,97853.56
2022-08-16T18:41:16.609Z,97850.66
2022-08-16T18:43:59.169Z,97851.84
2022-08-16T18:46:31.001Z,97861.19
2022-08-16T18:48:57.537Z,97866.63
2022-08-16T18:51:25.339Z,97869.25
2022-08-16T18:53:53.126Z,97870.41
2022-08-16T18:56:19.789Z,97858.25
2022-08-16T18:58:46.468Z,97862.56
2022-08-16T19:01:13.677Z,97851.00
2022-08-16T19:03:40.377Z,97875.91
2022-08-16T19:06:13.644Z,97875.13
2022-08-16T19:08:45.555Z,97875.34
2022-08-16T19:11:23.333Z,97878.38
2022-08-16T19:13:50.166Z,97882.84
2022-08-16T19:16:16.817Z,97887.50
2022-08-16T19:18:48.750Z,97888.47
2022-08-16T19:21:16.132Z,97893.34
2022-08-16T19:23:44.071Z,97894.16
2022-08-16T19:26:25.625Z,97893.47
2022-08-16T19:28:58.873Z,97906.44
2022-08-16T19:31:30.532Z,97908.47
2022-08-16T19:33:58.047Z,97899.16
2022-08-16T19:36:36.390Z,97900.34
2022-08-16T19:39:11.916Z,97900.09
2022-08-16T19:41:39.559Z,97908.63
2022-08-16T19:44:07.278Z,97906.41
2022-08-16T19:46:34.884Z,97905.16
2022-08-16T19:49:01.657Z,97909.97
2022-08-16T19:51:28.522Z,97920.97
2022-08-16T19:53:55.092Z,97924.00
2022-08-16T19:56:25.730Z,97925.75
2022-08-16T19:59:17.414Z,97942.00
2022-08-16T20:01:42.322Z,97940.97
2022-08-16T20:04:12.004Z,97945.03
2022-08-16T20:06:39.589Z,97945.94
2022-08-16T20:09:10.394Z,97951.88
2022-08-16T20:11:41.875Z,97954.53
2022-08-16T20:14:08.418Z,97963.56
2022-08-16T20:16:35.734Z,97965.56
2022-08-16T20:19:04.439Z,97974.50
2022-08-16T20:21:31.362Z,97968.19
2022-08-16T20:24:22.755Z,97973.94
2022-08-16T20:26:45.675Z,97978.84
2022-08-16T20:29:12.257Z,97977.38
2022-08-16T20:31:39.265Z,97985.31
2022-08-16T20:34:06.121Z,97991.44
2022-08-16T20:36:32.713Z,97991.25
2022-08-16T20:39:00.241Z,97992.69
2022-08-16T20:41:27.270Z,97987.44
2022-08-16T20:43:54.964Z,97984.63
2022-08-16T20:46:22.446Z,97983.06
2022-08-16T20:48:49.612Z,97997.28
2022-08-16T20:51:17.134Z,97983.25
2022-08-16T20:53:44.306Z,97990.34
2022-08-16T20:56:11.937Z,97986.47
2022-08-16T20:58:39.255Z,97995.53
2022-08-16T21:01:07.116Z,97992.03
2022-08-16T21:03:34.172Z,97998.94
2022-08-16T21:06:05.337Z,97997.22
2022-08-16T21:08:53.026Z,98002.94
2022-08-16T21:11:21.559Z,98010.34
2022-08-16T21:13:48.273Z,98017.97
2022-08-16T21:16:16.908Z,98019.59
2022-08-16T21:18:43.484Z,98026.31
2022-08-16T21:21:12.033Z,98021.28
2022-08-16T21:23:38.853Z,98022.91
2022-08-16T21:26:05.840Z,98037.97
2022-08-16T21:28:41.960Z,98028.66
2022-08-16T21:31:15.219Z,98025.03
2022-08-16T21:33:43.158Z,98020.09
2022-08-16T21:36:10.398Z,98013.53
2022-08-16T21:38:37.103Z,98035.84
2022-08-16T21:41:05.462Z,98032.81
2022-08-16T21:43:33.349Z,98025.72
2022-08-16T21:46:02.451Z,98026.59
2022-08-16T21:48:34.724Z,98030.22
2022-08-16T21:51:11.215Z,98038.53
2022-08-16T21:53:38.032Z,98036.09
2022-08-16T21:56:06.867Z,98037.50
2022-08-16T21:58:36.789Z,98046.75
2022-08-16T22:01:03.914Z,98052.31
2022-08-16T22:03:32.961Z,98054.06
2022-08-16T22:06:13.125Z,98054.13
2022-08-16T22:08:50.297Z,98069.91
2022-08-16T22:11:19.705Z,98088.81
2022-08-16T22:13:58.137Z,98088.06
2022-08-16T22:16:32.676Z,98081.63
2022-08-16T22:19:00.511Z,98095.03
2022-08-16T22:21:27.411Z,98103.31
2022-08-16T22:23:57.133Z,98125.31
2022-08-16T22:26:29.752Z,98135.25
2022-08-16T22:28:57.786Z,98136.91
2022-08-16T22:31:25.303Z,98127.31
2022-08-16T22:33:52.022Z,98130.59
2022-08-16T22:36:18.630Z,98130.22
2022-08-16T22:38:53.724Z,98113.94
2022-08-16T22:41:22.242Z,98123.78
2022-08-16T22:43:48.873Z,98127.88
2022-08-16T22:46:15.948Z,98121.91
2022-08-16T22:48:43.115Z,98126.25
2022-08-16T22:51:10.089Z,98134.19
2022-08-16T22:53:37.345Z,98118.44
2022-08-16T22:56:04.759Z,98125.00
2022-08-16T22:58:36.262Z,98118.00
2022-08-16T23:01:06.438Z,98114.75
2022-08-16T23:03:33.443Z,98121.84
2022-08-16T23:06:00.747Z,98119.28
2022-08-16T23:08:38.128Z,98115.84
2022-08-16T23:11:20.818Z,98127.25
2022-08-16T23:13:56.989Z,98128.34
2022-08-16T23:16:32.998Z,98119.75
2022-08-16T23:19:08.267Z,98119.72
2022-08-16T23:21:37.110Z,98117.56
2022-08-16T23:24:04.343Z,98117.19
2022-08-16T23:26:36.480Z,98109.41
2022-08-16T23:29:23.556Z,98108.59
2022-08-16T23:31:54.735Z,98106.44
2022-08-16T23:34:22.139Z,98094.41
2022-08-16T23:36:49.557Z,98093.13
2022-08-16T23:39:16.329Z,98096.03
2022-08-16T23:41:43.789Z,98081.75
2022-08-16T23:44:56.477Z,98087.06
2022-08-16T23:46:57.231Z,98077.41
2022-08-16T23:49:59.293Z,98079.00
2022-08-16T23:52:10.724Z,98084.00
2022-08-16T23:54:37.478Z,98087.97
2022-08-16T23:57:04.433Z,98090.50
2022-08-16T23:59:52.611Z,98076.47
